sensor_id;sensor_type;location;lat;lon;timestamp;temperature;humidity
23010;DHT22;11671;49.990;8.028;2022-12-11T00:00:15;0.70;99.90
23010;DHT22;11671;49.990;8.028;2022-12-11T00:02:41;0.80;99.90
23010;DHT22;11671;49.990;8.028;2022-12-11T00:05:07;0.70;99.90
23010;DHT22;11671;49.990;8.028;2022-12-11T00:07:33;0.80;99.90
23010;DHT22;11671;49.990;8.028;2022-12-11T00:09:58;0.80;99.90
23010;DHT22;11671;49.990;8.028;2022-12-11T00:12:24;0.70;99.90
23010;DHT22;11671;49.990;8.028;2022-12-11T00:14:50;0.70;99.90
23010;DHT22;11671;49.990;8.028;2022-12-11T00:17:15;0.70;99.90
23010;DHT22;11671;49.990;8.028;2022-12-11T00:19:41;0.70;99.90
23010;DHT22;11671;49.990;8.028;2022-12-11T00:22:10;0.70;99.90
23010;DHT22;11671;49.990;8.028;2022-12-11T00:24:35;0.70;99.90
23010;DHT22;11671;49.990;8.028;2022-12-11T00:27:01;0.80;99.90
23010;DHT22;11671;49.990;8.028;2022-12-11T00:29:26;0.80;99.90
23010;DHT22;11671;49.990;8.028;2022-12-11T00:31:52;0.90;99.90
23010;DHT22;11671;49.990;8.028;2022-12-11T00:34:17;0.90;99.90
23010;DHT22;11671;49.990;8.028;2022-12-11T00:36:43;0.90;99.90
23010;DHT22;11671;49.990;8.028;2022-12-11T00:39:09;0.90;99.90
23010;DHT22;11671;49.990;8.028;2022-12-11T00:41:34;1.00;99.90
23010;DHT22;11671;49.990;8.028;2022-12-11T00:44:00;1.10;99.90
23010;DHT22;11671;49.990;8.028;2022-12-11T00:46:26;1.10;99.90
23010;DHT22;11671;49.990;8.028;2022-12-11T00:48:51;1.10;99.90
23010;DHT22;11671;49.990;8.028;2022-12-11T00:51:18;1.10;99.90
23010;DHT22;11671;49.990;8.028;2022-12-11T00:53:47;1.10;99.90
23010;DHT22;11671;49.990;8.028;2022-12-11T00:56:15;1.10;99.90
23010;DHT22;11671;49.990;8.028;2022-12-11T00:58:41;1.10;99.90
23010;DHT22;11671;49.990;8.028;2022-12-11T01:01:09;1.20;99.90
23010;DHT22;11671;49.990;8.028;2022-12-11T01:03:35;1.10;99.90
23010;DHT22;11671;49.990;8.028;2022-12-11T01:06:02;1.10;99.90
23010;DHT22;11671;49.990;8.028;2022-12-11T01:08:28;1.20;99.90
23010;DHT22;11671;49.990;8.028;2022-12-11T01:11:04;1.20;99.90
23010;DHT22;11671;49.990;8.028;2022-12-11T01:13:30;1.20;99.90
23010;DHT22;11671;49.990;8.028;2022-12-11T01:15:57;1.20;99.90
23010;DHT22;11671;49.990;8.028;2022-12-11T01:18:23;1.20;99.90
23010;DHT22;11671;49.990;8.028;2022-12-11T01:20:49;1.20;99.90
23010;DHT22;11671;49.990;8.028;2022-12-11T01:23:14;1.20;99.90
23010;DHT22;11671;49.990;8.028;2022-12-11T01:25:40;1.20;99.90
23010;DHT22;11671;49.990;8.028;2022-12-11T01:28:07;1.20;99.90
23010;DHT22;11671;49.990;8.028;2022-12-11T01:30:33;1.20;99.90
23010;DHT22;11671;49.990;8.028;2022-12-11T01:32:59;1.20;99.90
23010;DHT22;11671;49.990;8.028;2022-12-11T01:35:25;1.20;99.90
23010;DHT22;11671;49.990;8.028;2022-12-11T01:37:51;1.20;99.90
23010;DHT22;11671;49.990;8.028;2022-12-11T01:40:22;1.10;99.90
23010;DHT22;11671;49.990;8.028;2022-12-11T01:42:48;1.10;99.90
23010;DHT22;11671;49.990;8.028;2022-12-11T01:45:39;1.10;99.90
23010;DHT22;11671;49.990;8.028;2022-12-11T01:50:35;0.90;99.90
23010;DHT22;11671;49.990;8.028;2022-12-11T01:53:05;0.80;99.90
23010;DHT22;11671;49.990;8.028;2022-12-11T01:55:33;0.80;99.90
23010;DHT22;11671;49.990;8.028;2022-12-11T01:57:59;0.70;99.90
23010;DHT22;11671;49.990;8.028;2022-12-11T02:00:26;0.70;99.90
23010;DHT22;11671;49.990;8.028;2022-12-11T02:02:52;0.70;99.90
23010;DHT22;11671;49.990;8.028;2022-12-11T02:05:17;0.70;99.90
23010;DHT22;11671;49.990;8.028;2022-12-11T02:07:48;0.70;99.90
23010;DHT22;11671;49.990;8.028;2022-12-11T02:10:16;0.70;99.90
23010;DHT22;11671;49.990;8.028;2022-12-11T02:13:00;0.70;99.90
23010;DHT22;11671;49.990;8.028;2022-12-11T02:15:43;0.70;99.90
23010;DHT22;11671;49.990;8.028;2022-12-11T02:18:30;0.60;99.90
23010;DHT22;11671;49.990;8.028;2022-12-11T02:21:20;0.60;99.90
23010;DHT22;11671;49.990;8.028;2022-12-11T02:24:14;0.50;99.90
23010;DHT22;11671;49.990;8.028;2022-12-11T02:26:58;0.50;99.90
23010;DHT22;11671;49.990;8.028;2022-12-11T02:29:34;0.50;99.90
23010;DHT22;11671;49.990;8.028;2022-12-11T02:34:31;0.50;99.90
23010;DHT22;11671;49.990;8.028;2022-12-11T02:37:02;0.50;99.90
23010;DHT22;11671;49.990;8.028;2022-12-11T02:39:31;0.50;99.90
23010;DHT22;11671;49.990;8.028;2022-12-11T02:41:58;0.50;99.90
23010;DHT22;11671;49.990;8.028;2022-12-11T02:44:27;0.40;99.90
23010;DHT22;11671;49.990;8.028;2022-12-11T02:46:54;0.40;99.90
23010;DHT22;11671;49.990;8.028;2022-12-11T02:49:21;0.40;99.90
23010;DHT22;11671;49.990;8.028;2022-12-11T02:51:48;0.50;99.90
23010;DHT22;11671;49.990;8.028;2022-12-11T02:54:17;0.50;99.90
23010;DHT22;11671;49.990;8.028;2022-12-11T02:57:02;0.50;99.90
23010;DHT22;11671;49.990;8.028;2022-12-11T02:59:34;0.40;99.90
23010;DHT22;11671;49.990;8.028;2022-12-11T03:02:01;0.50;99.90
23010;DHT22;11671;49.990;8.028;2022-12-11T03:04:27;0.50;99.90
23010;DHT22;11671;49.990;8.028;2022-12-11T03:06:57;0.40;99.90
23010;DHT22;11671;49.990;8.028;2022-12-11T03:09:25;0.40;99.90
23010;DHT22;11671;49.990;8.028;2022-12-11T03:11:51;0.30;99.90
23010;DHT22;11671;49.990;8.028;2022-12-11T03:14:17;0.40;99.90
23010;DHT22;11671;49.990;8.028;2022-12-11T03:16:56;0.40;99.90
23010;DHT22;11671;49.990;8.028;2022-12-11T03:19:28;0.30;99.90
23010;DHT22;11671;49.990;8.028;2022-12-11T03:22:05;0.30;99.90
23010;DHT22;11671;49.990;8.028;2022-12-11T03:24:34;0.40;99.90
23010;DHT22;11671;49.990;8.028;2022-12-11T03:27:09;0.40;99.90
23010;DHT22;11671;49.990;8.028;2022-12-11T03:29:40;0.30;99.90
23010;DHT22;11671;49.990;8.028;2022-12-11T03:32:16;0.30;99.90
23010;DHT22;11671;49.990;8.028;2022-12-11T03:35:07;0.30;99.90
23010;DHT22;11671;49.990;8.028;2022-12-11T03:37:36;0.40;99.90
23010;DHT22;11671;49.990;8.028;2022-12-11T03:40:09;0.50;99.90
23010;DHT22;11671;49.990;8.028;2022-12-11T03:42:37;0.50;99.90
23010;DHT22;11671;49.990;8.028;2022-12-11T03:45:04;0.60;99.90
23010;DHT22;11671;49.990;8.028;2022-12-11T03:47:31;0.60;99.90
23010;DHT22;11671;49.990;8.028;2022-12-11T03:49:58;0.60;99.90
23010;DHT22;11671;49.990;8.028;2022-12-11T03:52:26;0.60;99.90
23010;DHT22;11671;49.990;8.028;2022-12-11T03:54:54;0.60;99.90
23010;DHT22;11671;49.990;8.028;2022-12-11T03:57:24;0.60;99.90
23010;DHT22;11671;49.990;8.028;2022-12-11T03:59:51;0.50;99.90
23010;DHT22;11671;49.990;8.028;2022-12-11T04:02:17;0.50;99.90
23010;DHT22;11671;49.990;8.028;2022-12-11T04:04:43;0.50;99.90
23010;DHT22;11671;49.990;8.028;2022-12-11T04:07:08;0.40;99.90
23010;DHT22;11671;49.990;8.028;2022-12-11T04:09:34;0.40;99.90
23010;DHT22;11671;49.990;8.028;2022-12-11T04:12:00;0.40;99.90
23010;DHT22;11671;49.990;8.028;2022-12-11T04:14:26;0.40;99.90
23010;DHT22;11671;49.990;8.028;2022-12-11T04:17:10;0.50;99.90
23010;DHT22;11671;49.990;8.028;2022-12-11T04:19:35;0.50;99.90
23010;DHT22;11671;49.990;8.028;2022-12-11T04:22:20;0.60;99.90
23010;DHT22;11671;49.990;8.028;2022-12-11T04:24:51;0.50;99.90
23010;DHT22;11671;49.990;8.028;2022-12-11T04:27:18;0.40;99.90
23010;DHT22;11671;49.990;8.028;2022-12-11T04:30:05;0.40;99.90
23010;DHT22;11671;49.990;8.028;2022-12-11T04:32:31;0.40;99.90
23010;DHT22;11671;49.990;8.028;2022-12-11T04:34:57;0.30;99.90
23010;DHT22;11671;49.990;8.028;2022-12-11T04:37:22;0.30;99.90
23010;DHT22;11671;49.990;8.028;2022-12-11T04:39:48;0.30;99.90
23010;DHT22;11671;49.990;8.028;2022-12-11T04:42:14;0.40;99.90
23010;DHT22;11671;49.990;8.028;2022-12-11T04:44:39;0.40;99.90
23010;DHT22;11671;49.990;8.028;2022-12-11T04:47:05;0.40;99.90
23010;DHT22;11671;49.990;8.028;2022-12-11T04:49:30;0.40;99.90
23010;DHT22;11671;49.990;8.028;2022-12-11T04:51:56;0.40;99.90
23010;DHT22;11671;49.990;8.028;2022-12-11T04:54:21;0.40;99.90
23010;DHT22;11671;49.990;8.028;2022-12-11T04:56:47;0.50;99.90
23010;DHT22;11671;49.990;8.028;2022-12-11T04:59:13;0.40;99.90
23010;DHT22;11671;49.990;8.028;2022-12-11T05:01:39;0.50;99.90
23010;DHT22;11671;49.990;8.028;2022-12-11T05:04:04;0.50;99.90
23010;DHT22;11671;49.990;8.028;2022-12-11T05:06:30;0.50;99.90
23010;DHT22;11671;49.990;8.028;2022-12-11T05:08:55;0.50;99.90
23010;DHT22;11671;49.990;8.028;2022-12-11T05:11:21;0.60;99.90
23010;DHT22;11671;49.990;8.028;2022-12-11T05:13:47;0.60;99.90
23010;DHT22;11671;49.990;8.028;2022-12-11T05:16:15;0.60;99.90
23010;DHT22;11671;49.990;8.028;2022-12-11T05:18:41;0.60;99.90
23010;DHT22;11671;49.990;8.028;2022-12-11T05:21:10;0.60;99.90
23010;DHT22;11671;49.990;8.028;2022-12-11T05:23:36;0.70;99.90
23010;DHT22;11671;49.990;8.028;2022-12-11T05:26:08;0.70;99.90
23010;DHT22;11671;49.990;8.028;2022-12-11T05:28:36;0.60;99.90
23010;DHT22;11671;49.990;8.028;2022-12-11T05:31:07;0.70;99.90
23010;DHT22;11671;49.990;8.028;2022-12-11T05:33:33;0.70;99.90
23010;DHT22;11671;49.990;8.028;2022-12-11T05:35:59;0.70;99.90
23010;DHT22;11671;49.990;8.028;2022-12-11T05:38:25;0.70;99.90
23010;DHT22;11671;49.990;8.028;2022-12-11T05:40:55;0.70;99.90
23010;DHT22;11671;49.990;8.028;2022-12-11T05:43:21;0.70;99.90
23010;DHT22;11671;49.990;8.028;2022-12-11T05:45:46;0.70;99.90
23010;DHT22;11671;49.990;8.028;2022-12-11T05:48:12;0.70;99.90
23010;DHT22;11671;49.990;8.028;2022-12-11T05:50:37;0.70;99.90
23010;DHT22;11671;49.990;8.028;2022-12-11T05:53:03;0.70;99.90
23010;DHT22;11671;49.990;8.028;2022-12-11T05:55:32;0.70;99.90
23010;DHT22;11671;49.990;8.028;2022-12-11T05:57:58;0.70;99.90
23010;DHT22;11671;49.990;8.028;2022-12-11T06:00:24;0.70;99.90
23010;DHT22;11671;49.990;8.028;2022-12-11T06:02:49;0.70;99.90
23010;DHT22;11671;49.990;8.028;2022-12-11T06:05:15;0.70;99.90
23010;DHT22;11671;49.990;8.028;2022-12-11T06:07:40;0.70;99.90
23010;DHT22;11671;49.990;8.028;2022-12-11T06:10:06;0.60;99.90
23010;DHT22;11671;49.990;8.028;2022-12-11T06:12:32;0.60;99.90
23010;DHT22;11671;49.990;8.028;2022-12-11T06:14:57;0.60;99.90
23010;DHT22;11671;49.990;8.028;2022-12-11T06:17:23;0.60;99.90
23010;DHT22;11671;49.990;8.028;2022-12-11T06:19:48;0.60;99.90
23010;DHT22;11671;49.990;8.028;2022-12-11T06:22:14;0.70;99.90
23010;DHT22;11671;49.990;8.028;2022-12-11T06:24:40;0.70;99.90
23010;DHT22;11671;49.990;8.028;2022-12-11T06:27:05;0.70;99.90
23010;DHT22;11671;49.990;8.028;2022-12-11T06:29:31;0.70;99.90
23010;DHT22;11671;49.990;8.028;2022-12-11T06:31:57;0.70;99.90
23010;DHT22;11671;49.990;8.028;2022-12-11T06:34:22;0.70;99.90
23010;DHT22;11671;49.990;8.028;2022-12-11T06:36:48;0.60;99.90
23010;DHT22;11671;49.990;8.028;2022-12-11T06:39:13;0.60;99.90
23010;DHT22;11671;49.990;8.028;2022-12-11T06:41:39;0.70;99.90
23010;DHT22;11671;49.990;8.028;2022-12-11T06:44:04;0.70;99.90
23010;DHT22;11671;49.990;8.028;2022-12-11T06:46:30;0.60;99.90
23010;DHT22;11671;49.990;8.028;2022-12-11T06:48:55;0.60;99.90
23010;DHT22;11671;49.990;8.028;2022-12-11T06:51:22;0.60;99.90
23010;DHT22;11671;49.990;8.028;2022-12-11T06:53:52;0.70;99.90
23010;DHT22;11671;49.990;8.028;2022-12-11T06:56:19;0.80;99.90
23010;DHT22;11671;49.990;8.028;2022-12-11T06:58:44;0.80;99.90
23010;DHT22;11671;49.990;8.028;2022-12-11T07:01:17;0.80;99.90
23010;DHT22;11671;49.990;8.028;2022-12-11T07:03:43;0.80;99.90
23010;DHT22;11671;49.990;8.028;2022-12-11T07:06:09;0.90;99.90
23010;DHT22;11671;49.990;8.028;2022-12-11T07:08:35;0.90;99.90
23010;DHT22;11671;49.990;8.028;2022-12-11T07:11:03;0.90;99.90
23010;DHT22;11671;49.990;8.028;2022-12-11T07:13:29;1.00;99.90
23010;DHT22;11671;49.990;8.028;2022-12-11T07:15:56;1.00;99.90
23010;DHT22;11671;49.990;8.028;2022-12-11T07:18:22;1.00;99.90
23010;DHT22;11671;49.990;8.028;2022-12-11T07:20:47;1.10;99.90
23010;DHT22;11671;49.990;8.028;2022-12-11T07:23:13;1.10;99.90
23010;DHT22;11671;49.990;8.028;2022-12-11T07:25:38;1.10;99.90
23010;DHT22;11671;49.990;8.028;2022-12-11T07:28:04;1.00;99.90
23010;DHT22;11671;49.990;8.028;2022-12-11T07:30:30;0.90;99.90
23010;DHT22;11671;49.990;8.028;2022-12-11T07:32:55;0.80;99.90
23010;DHT22;11671;49.990;8.028;2022-12-11T07:35:21;0.80;99.90
23010;DHT22;11671;49.990;8.028;2022-12-11T07:37:46;0.70;99.90
23010;DHT22;11671;49.990;8.028;2022-12-11T07:40:12;0.70;99.90
23010;DHT22;11671;49.990;8.028;2022-12-11T07:42:38;0.70;99.90
23010;DHT22;11671;49.990;8.028;2022-12-11T07:45:04;0.70;99.90
23010;DHT22;11671;49.990;8.028;2022-12-11T07:47:29;0.70;99.90
23010;DHT22;11671;49.990;8.028;2022-12-11T07:49:55;0.70;99.90
23010;DHT22;11671;49.990;8.028;2022-12-11T07:52:21;0.80;99.90
23010;DHT22;11671;49.990;8.028;2022-12-11T07:54:46;0.80;99.90
23010;DHT22;11671;49.990;8.028;2022-12-11T07:57:12;0.80;99.90
23010;DHT22;11671;49.990;8.028;2022-12-11T07:59:38;0.80;99.90
23010;DHT22;11671;49.990;8.028;2022-12-11T08:02:03;0.90;99.90
23010;DHT22;11671;49.990;8.028;2022-12-11T08:04:29;0.90;99.90
23010;DHT22;11671;49.990;8.028;2022-12-11T08:06:54;0.90;99.90
23010;DHT22;11671;49.990;8.028;2022-12-11T08:09:20;1.00;99.90
23010;DHT22;11671;49.990;8.028;2022-12-11T08:11:50;1.10;99.90
23010;DHT22;11671;49.990;8.028;2022-12-11T08:14:16;1.20;99.90
23010;DHT22;11671;49.990;8.028;2022-12-11T08:16:42;1.10;99.90
23010;DHT22;11671;49.990;8.028;2022-12-11T08:19:10;1.10;99.90
23010;DHT22;11671;49.990;8.028;2022-12-11T08:21:35;1.20;99.90
23010;DHT22;11671;49.990;8.028;2022-12-11T08:24:01;1.30;99.90
23010;DHT22;11671;49.990;8.028;2022-12-11T08:26:29;1.40;99.90
23010;DHT22;11671;49.990;8.028;2022-12-11T08:28:56;1.40;99.90
23010;DHT22;11671;49.990;8.028;2022-12-11T08:31:23;1.50;99.90
23010;DHT22;11671;49.990;8.028;2022-12-11T08:33:49;1.50;99.90
23010;DHT22;11671;49.990;8.028;2022-12-11T08:36:19;1.50;99.90
23010;DHT22;11671;49.990;8.028;2022-12-11T08:38:45;1.70;99.90
23010;DHT22;11671;49.990;8.028;2022-12-11T08:41:13;1.80;99.90
23010;DHT22;11671;49.990;8.028;2022-12-11T08:43:39;1.90;99.90
23010;DHT22;11671;49.990;8.028;2022-12-11T08:46:05;2.00;99.90
23010;DHT22;11671;49.990;8.028;2022-12-11T08:48:32;2.10;99.90
23010;DHT22;11671;49.990;8.028;2022-12-11T08:51:00;2.10;99.90
23010;DHT22;11671;49.990;8.028;2022-12-11T08:53:29;2.20;99.90
23010;DHT22;11671;49.990;8.028;2022-12-11T08:56:06;2.40;99.90
23010;DHT22;11671;49.990;8.028;2022-12-11T08:58:32;2.50;99.90
23010;DHT22;11671;49.990;8.028;2022-12-11T09:00:57;2.60;99.90
23010;DHT22;11671;49.990;8.028;2022-12-11T09:03:23;2.60;99.90
23010;DHT22;11671;49.990;8.028;2022-12-11T09:05:49;2.70;99.90
23010;DHT22;11671;49.990;8.028;2022-12-11T09:08:14;2.70;99.90
23010;DHT22;11671;49.990;8.028;2022-12-11T09:10:40;2.80;99.90
23010;DHT22;11671;49.990;8.028;2022-12-11T09:13:06;2.80;99.90
23010;DHT22;11671;49.990;8.028;2022-12-11T09:15:31;2.80;99.90
23010;DHT22;11671;49.990;8.028;2022-12-11T09:17:57;2.80;99.90
23010;DHT22;11671;49.990;8.028;2022-12-11T09:20:22;2.80;99.90
23010;DHT22;11671;49.990;8.028;2022-12-11T09:22:48;2.90;99.90
23010;DHT22;11671;49.990;8.028;2022-12-11T09:25:14;3.00;99.90
23010;DHT22;11671;49.990;8.028;2022-12-11T09:27:39;2.90;99.90
23010;DHT22;11671;49.990;8.028;2022-12-11T09:30:06;2.80;99.90
23010;DHT22;11671;49.990;8.028;2022-12-11T09:32:32;2.80;99.90
23010;DHT22;11671;49.990;8.028;2022-12-11T09:34:58;2.80;99.90
23010;DHT22;11671;49.990;8.028;2022-12-11T09:37:23;2.80;99.90
23010;DHT22;11671;49.990;8.028;2022-12-11T09:39:49;2.70;99.90
23010;DHT22;11671;49.990;8.028;2022-12-11T09:42:20;2.70;99.90
23010;DHT22;11671;49.990;8.028;2022-12-11T09:45:00;2.70;99.90
23010;DHT22;11671;49.990;8.028;2022-12-11T09:47:55;2.70;99.90
23010;DHT22;11671;49.990;8.028;2022-12-11T09:50:27;2.80;99.90
23010;DHT22;11671;49.990;8.028;2022-12-11T09:53:03;3.10;99.90
23010;DHT22;11671;49.990;8.028;2022-12-11T09:55:38;3.20;99.90
23010;DHT22;11671;49.990;8.028;2022-12-11T10:01:05;3.30;99.90
23010;DHT22;11671;49.990;8.028;2022-12-11T10:04:08;3.40;99.90
23010;DHT22;11671;49.990;8.028;2022-12-11T10:06:46;3.40;99.90
23010;DHT22;11671;49.990;8.028;2022-12-11T10:09:18;3.50;99.90
23010;DHT22;11671;49.990;8.028;2022-12-11T10:12:04;3.50;99.90
23010;DHT22;11671;49.990;8.028;2022-12-11T10:17:30;3.50;99.90
23010;DHT22;11671;49.990;8.028;2022-12-11T10:20:44;3.50;99.90
23010;DHT22;11671;49.990;8.028;2022-12-11T10:22:46;3.50;99.90
23010;DHT22;11671;49.990;8.028;2022-12-11T10:25:29;3.60;99.90
23010;DHT22;11671;49.990;8.028;2022-12-11T10:27:55;3.50;99.90
23010;DHT22;11671;49.990;8.028;2022-12-11T10:30:29;3.40;99.90
23010;DHT22;11671;49.990;8.028;2022-12-11T10:33:13;3.60;99.90
23010;DHT22;11671;49.990;8.028;2022-12-11T10:36:05;3.80;99.90
23010;DHT22;11671;49.990;8.028;2022-12-11T10:38:41;4.00;99.90
23010;DHT22;11671;49.990;8.028;2022-12-11T10:41:17;3.80;99.90
23010;DHT22;11671;49.990;8.028;2022-12-11T10:43:47;3.80;99.90
23010;DHT22;11671;49.990;8.028;2022-12-11T10:46:19;3.60;99.90
23010;DHT22;11671;49.990;8.028;2022-12-11T10:48:56;3.50;99.90
23010;DHT22;11671;49.990;8.028;2022-12-11T10:51:33;3.40;99.90
23010;DHT22;11671;49.990;8.028;2022-12-11T10:54:51;3.30;99.90
23010;DHT22;11671;49.990;8.028;2022-12-11T10:56:54;3.30;99.90
23010;DHT22;11671;49.990;8.028;2022-12-11T10:59:36;3.40;99.90
23010;DHT22;11671;49.990;8.028;2022-12-11T11:02:04;3.40;99.90
23010;DHT22;11671;49.990;8.028;2022-12-11T11:04:37;3.50;99.90
23010;DHT22;11671;49.990;8.028;2022-12-11T11:07:23;3.70;99.90
23010;DHT22;11671;49.990;8.028;2022-12-11T11:09:59;3.90;99.90
23010;DHT22;11671;49.990;8.028;2022-12-11T11:12:27;3.80;99.90
23010;DHT22;11671;49.990;8.028;2022-12-11T11:17:56;3.40;99.90
23010;DHT22;11671;49.990;8.028;2022-12-11T11:20:28;3.40;99.90
23010;DHT22;11671;49.990;8.028;2022-12-11T11:22:56;3.40;99.90
23010;DHT22;11671;49.990;8.028;2022-12-11T11:25:25;3.40;99.90
23010;DHT22;11671;49.990;8.028;2022-12-11T11:27:58;3.40;99.90
23010;DHT22;11671;49.990;8.028;2022-12-11T11:30:29;3.20;99.90
23010;DHT22;11671;49.990;8.028;2022-12-11T11:32:57;3.10;99.90
23010;DHT22;11671;49.990;8.028;2022-12-11T11:35:28;3.10;99.90
23010;DHT22;11671;49.990;8.028;2022-12-11T11:38:13;3.40;99.90
23010;DHT22;11671;49.990;8.028;2022-12-11T11:40:59;3.60;99.90
23010;DHT22;11671;49.990;8.028;2022-12-11T11:43:45;3.90;99.90
23010;DHT22;11671;49.990;8.028;2022-12-11T11:51:36;4.30;99.90
23010;DHT22;11671;49.990;8.028;2022-12-11T12:00:20;4.30;99.90
23010;DHT22;11671;49.990;8.028;2022-12-11T12:03:13;4.40;99.90
23010;DHT22;11671;49.990;8.028;2022-12-11T12:05:56;4.30;99.90
23010;DHT22;11671;49.990;8.028;2022-12-11T12:08:42;4.20;99.90
23010;DHT22;11671;49.990;8.028;2022-12-11T12:11:16;4.20;99.90
23010;DHT22;11671;49.990;8.028;2022-12-11T12:14:06;4.20;99.90
23010;DHT22;11671;49.990;8.028;2022-12-11T12:19:45;4.30;99.90
23010;DHT22;11671;49.990;8.028;2022-12-11T12:30:26;4.30;99.90
23010;DHT22;11671;49.990;8.028;2022-12-11T12:35:49;4.10;99.90
23010;DHT22;11671;49.990;8.028;2022-12-11T12:38:29;4.00;99.90
23010;DHT22;11671;49.990;8.028;2022-12-11T12:46:45;3.60;99.90
23010;DHT22;11671;49.990;8.028;2022-12-11T12:49:24;3.70;99.90
23010;DHT22;11671;49.990;8.028;2022-12-11T12:51:52;3.80;99.90
23010;DHT22;11671;49.990;8.028;2022-12-11T12:54:19;4.10;99.90
23010;DHT22;11671;49.990;8.028;2022-12-11T12:56:46;4.10;99.90
23010;DHT22;11671;49.990;8.028;2022-12-11T12:59:20;4.10;99.90
23010;DHT22;11671;49.990;8.028;2022-12-11T13:01:57;4.00;99.90
23010;DHT22;11671;49.990;8.028;2022-12-11T13:04:39;4.00;99.90
23010;DHT22;11671;49.990;8.028;2022-12-11T13:07:33;4.00;99.90
23010;DHT22;11671;49.990;8.028;2022-12-11T13:10:07;4.10;99.90
23010;DHT22;11671;49.990;8.028;2022-12-11T13:12:47;4.10;99.90
23010;DHT22;11671;49.990;8.028;2022-12-11T13:17:58;4.20;99.90
23010;DHT22;11671;49.990;8.028;2022-12-11T13:20:29;4.30;99.90
23010;DHT22;11671;49.990;8.028;2022-12-11T13:23:18;4.30;99.90
23010;DHT22;11671;49.990;8.028;2022-12-11T13:25:51;4.20;99.90
23010;DHT22;11671;49.990;8.028;2022-12-11T13:33:24;4.00;99.90
23010;DHT22;11671;49.990;8.028;2022-12-11T13:38:34;3.80;99.90
23010;DHT22;11671;49.990;8.028;2022-12-11T13:41:01;3.70;99.90
23010;DHT22;11671;49.990;8.028;2022-12-11T13:43:32;3.80;99.90
23010;DHT22;11671;49.990;8.028;2022-12-11T13:46:00;3.80;99.90
23010;DHT22;11671;49.990;8.028;2022-12-11T13:48:29;3.80;99.90
23010;DHT22;11671;49.990;8.028;2022-12-11T13:50:58;3.70;99.90
23010;DHT22;11671;49.990;8.028;2022-12-11T13:53:24;3.80;99.90
23010;DHT22;11671;49.990;8.028;2022-12-11T13:56:20;3.90;99.90
23010;DHT22;11671;49.990;8.028;2022-12-11T13:58:46;4.00;99.90
23010;DHT22;11671;49.990;8.028;2022-12-11T14:01:31;3.90;99.90
23010;DHT22;11671;49.990;8.028;2022-12-11T14:04:03;3.90;99.90
23010;DHT22;11671;49.990;8.028;2022-12-11T14:06:33;3.90;99.90
23010;DHT22;11671;49.990;8.028;2022-12-11T14:09:01;3.90;99.90
23010;DHT22;11671;49.990;8.028;2022-12-11T14:11:35;3.90;99.90
23010;DHT22;11671;49.990;8.028;2022-12-11T14:14:06;3.90;99.90
23010;DHT22;11671;49.990;8.028;2022-12-11T14:16:33;3.90;99.90
23010;DHT22;11671;49.990;8.028;2022-12-11T14:19:05;3.90;99.90
23010;DHT22;11671;49.990;8.028;2022-12-11T14:21:31;3.90;99.90
23010;DHT22;11671;49.990;8.028;2022-12-11T14:23:59;3.90;99.90
23010;DHT22;11671;49.990;8.028;2022-12-11T14:26:30;3.90;99.90
23010;DHT22;11671;49.990;8.028;2022-12-11T14:28:56;3.80;99.90
23010;DHT22;11671;49.990;8.028;2022-12-11T14:31:32;3.80;99.90
23010;DHT22;11671;49.990;8.028;2022-12-11T14:34:18;3.70;99.90
23010;DHT22;11671;49.990;8.028;2022-12-11T14:36:45;3.70;99.90
23010;DHT22;11671;49.990;8.028;2022-12-11T14:40:03;3.90;99.90
23010;DHT22;11671;49.990;8.028;2022-12-11T14:42:10;4.10;99.90
23010;DHT22;11671;49.990;8.028;2022-12-11T14:44:57;4.30;99.90
23010;DHT22;11671;49.990;8.028;2022-12-11T14:47:29;4.20;99.90
23010;DHT22;11671;49.990;8.028;2022-12-11T14:50:18;4.00;99.90
23010;DHT22;11671;49.990;8.028;2022-12-11T14:52:49;3.80;99.90
23010;DHT22;11671;49.990;8.028;2022-12-11T14:55:30;3.90;99.90
23010;DHT22;11671;49.990;8.028;2022-12-11T14:57:59;3.90;99.90
23010;DHT22;11671;49.990;8.028;2022-12-11T15:05:54;4.00;99.90
23010;DHT22;11671;49.990;8.028;2022-12-11T15:08:25;3.90;99.90
23010;DHT22;11671;49.990;8.028;2022-12-11T15:11:07;3.80;99.90
23010;DHT22;11671;49.990;8.028;2022-12-11T15:13:56;3.70;99.90
23010;DHT22;11671;49.990;8.028;2022-12-11T15:16:22;3.60;99.90
23010;DHT22;11671;49.990;8.028;2022-12-11T15:18:49;3.50;99.90
23010;DHT22;11671;49.990;8.028;2022-12-11T15:21:16;3.40;99.90
23010;DHT22;11671;49.990;8.028;2022-12-11T15:23:52;3.30;99.90
23010;DHT22;11671;49.990;8.028;2022-12-11T15:26:20;3.40;99.90
23010;DHT22;11671;49.990;8.028;2022-12-11T15:29:01;3.40;99.90
23010;DHT22;11671;49.990;8.028;2022-12-11T15:31:30;3.50;99.90
23010;DHT22;11671;49.990;8.028;2022-12-11T15:33:56;3.40;99.90
23010;DHT22;11671;49.990;8.028;2022-12-11T15:36:35;3.50;99.90
23010;DHT22;11671;49.990;8.028;2022-12-11T15:39:02;3.70;99.90
23010;DHT22;11671;49.990;8.028;2022-12-11T15:41:29;3.60;99.90
23010;DHT22;11671;49.990;8.028;2022-12-11T15:44:00;3.50;99.90
23010;DHT22;11671;49.990;8.028;2022-12-11T15:46:28;3.40;99.90
23010;DHT22;11671;49.990;8.028;2022-12-11T15:48:55;3.40;99.90
23010;DHT22;11671;49.990;8.028;2022-12-11T15:51:21;3.40;99.90
23010;DHT22;11671;49.990;8.028;2022-12-11T15:53:47;3.40;99.90
23010;DHT22;11671;49.990;8.028;2022-12-11T15:56:16;3.30;99.90
23010;DHT22;11671;49.990;8.028;2022-12-11T15:58:43;3.20;99.90
23010;DHT22;11671;49.990;8.028;2022-12-11T16:01:09;3.10;99.90
23010;DHT22;11671;49.990;8.028;2022-12-11T16:03:35;3.00;99.90
23010;DHT22;11671;49.990;8.028;2022-12-11T16:06:01;3.00;99.90
23010;DHT22;11671;49.990;8.028;2022-12-11T16:08:27;2.80;99.90
23010;DHT22;11671;49.990;8.028;2022-12-11T16:10:53;2.80;99.90
23010;DHT22;11671;49.990;8.028;2022-12-11T16:13:20;2.70;99.90
23010;DHT22;11671;49.990;8.028;2022-12-11T16:15:47;2.70;99.90
23010;DHT22;11671;49.990;8.028;2022-12-11T16:18:19;2.60;99.90
23010;DHT22;11671;49.990;8.028;2022-12-11T16:20:46;2.50;99.90
23010;DHT22;11671;49.990;8.028;2022-12-11T16:23:13;2.50;99.90
23010;DHT22;11671;49.990;8.028;2022-12-11T16:25:40;2.50;99.90
23010;DHT22;11671;49.990;8.028;2022-12-11T16:28:07;2.40;99.90
23010;DHT22;11671;49.990;8.028;2022-12-11T16:30:35;2.40;99.90
23010;DHT22;11671;49.990;8.028;2022-12-11T16:33:02;2.40;99.90
23010;DHT22;11671;49.990;8.028;2022-12-11T16:35:28;2.30;99.90
23010;DHT22;11671;49.990;8.028;2022-12-11T16:37:54;2.30;99.90
23010;DHT22;11671;49.990;8.028;2022-12-11T16:40:21;2.30;99.90
23010;DHT22;11671;49.990;8.028;2022-12-11T16:42:47;2.30;99.90
23010;DHT22;11671;49.990;8.028;2022-12-11T16:45:19;2.30;99.90
23010;DHT22;11671;49.990;8.028;2022-12-11T16:47:46;2.40;99.90
23010;DHT22;11671;49.990;8.028;2022-12-11T16:50:14;2.40;99.90
23010;DHT22;11671;49.990;8.028;2022-12-11T16:52:40;2.30;99.90
23010;DHT22;11671;49.990;8.028;2022-12-11T16:55:08;2.40;99.90
23010;DHT22;11671;49.990;8.028;2022-12-11T16:57:34;2.40;99.90
23010;DHT22;11671;49.990;8.028;2022-12-11T17:00:02;2.50;99.90
23010;DHT22;11671;49.990;8.028;2022-12-11T17:02:28;2.60;99.90